sensor_id;sensor_type;location;lat;lon;timestamp;temperature;humidity
29003;DHT22;16102;57.138;-2.118;2023-03-01T00:01:17;5.50;99.90
29003;DHT22;16102;57.138;-2.118;2023-03-01T00:03:44;5.50;99.90
29003;DHT22;16102;57.138;-2.118;2023-03-01T00:06:12;5.60;99.90
29003;DHT22;16102;57.138;-2.118;2023-03-01T00:08:39;5.60;99.90
29003;DHT22;16102;57.138;-2.118;2023-03-01T00:11:16;5.60;99.90
29003;DHT22;16102;57.138;-2.118;2023-03-01T00:13:44;5.50;99.90
29003;DHT22;16102;57.138;-2.118;2023-03-01T00:16:14;5.50;99.90
29003;DHT22;16102;57.138;-2.118;2023-03-01T00:18:42;5.50;99.90
29003;DHT22;16102;57.138;-2.118;2023-03-01T00:21:09;5.50;99.90
29003;DHT22;16102;57.138;-2.118;2023-03-01T00:23:37;5.50;99.90
29003;DHT22;16102;57.138;-2.118;2023-03-01T00:26:13;5.50;99.90
29003;DHT22;16102;57.138;-2.118;2023-03-01T00:28:41;5.50;99.90
29003;DHT22;16102;57.138;-2.118;2023-03-01T00:31:14;5.40;96.10
29003;DHT22;16102;57.138;-2.118;2023-03-01T00:33:43;5.40;95.30
29003;DHT22;16102;57.138;-2.118;2023-03-01T00:36:11;5.40;91.20
29003;DHT22;16102;57.138;-2.118;2023-03-01T00:38:41;5.40;82.60
29003;DHT22;16102;57.138;-2.118;2023-03-01T00:41:11;5.40;68.90
29003;DHT22;16102;57.138;-2.118;2023-03-01T00:43:38;5.40;68.60
29003;DHT22;16102;57.138;-2.118;2023-03-01T00:46:07;5.30;59.20
29003;DHT22;16102;57.138;-2.118;2023-03-01T00:48:35;5.30;66.80
29003;DHT22;16102;57.138;-2.118;2023-03-01T00:51:28;5.20;87.60
29003;DHT22;16102;57.138;-2.118;2023-03-01T00:54:19;5.10;99.90
29003;DHT22;16102;57.138;-2.118;2023-03-01T00:56:46;5.10;99.90
29003;DHT22;16102;57.138;-2.118;2023-03-01T00:59:13;5.00;99.90
29003;DHT22;16102;57.138;-2.118;2023-03-01T01:01:40;5.00;99.90
29003;DHT22;16102;57.138;-2.118;2023-03-01T01:04:09;5.00;99.90
29003;DHT22;16102;57.138;-2.118;2023-03-01T01:06:42;4.90;99.90
29003;DHT22;16102;57.138;-2.118;2023-03-01T01:09:12;4.90;99.90
29003;DHT22;16102;57.138;-2.118;2023-03-01T01:11:50;4.90;99.90
29003;DHT22;16102;57.138;-2.118;2023-03-01T01:14:18;4.80;99.90
29003;DHT22;16102;57.138;-2.118;2023-03-01T01:16:46;4.80;99.90
29003;DHT22;16102;57.138;-2.118;2023-03-01T01:19:36;4.80;99.90
29003;DHT22;16102;57.138;-2.118;2023-03-01T01:22:03;4.70;99.90
29003;DHT22;16102;57.138;-2.118;2023-03-01T01:24:30;4.70;99.90
29003;DHT22;16102;57.138;-2.118;2023-03-01T01:26:58;4.60;99.90
29003;DHT22;16102;57.138;-2.118;2023-03-01T01:29:24;4.60;99.90
29003;DHT22;16102;57.138;-2.118;2023-03-01T01:31:51;4.60;99.90
29003;DHT22;16102;57.138;-2.118;2023-03-01T01:34:20;4.60;99.90
29003;DHT22;16102;57.138;-2.118;2023-03-01T01:36:49;4.60;99.90
29003;DHT22;16102;57.138;-2.118;2023-03-01T01:39:17;4.50;99.90
29003;DHT22;16102;57.138;-2.118;2023-03-01T01:41:44;4.50;99.90
29003;DHT22;16102;57.138;-2.118;2023-03-01T01:47:11;4.50;99.90
29003;DHT22;16102;57.138;-2.118;2023-03-01T01:49:57;4.50;99.90
29003;DHT22;16102;57.138;-2.118;2023-03-01T01:52:34;4.50;99.90
29003;DHT22;16102;57.138;-2.118;2023-03-01T01:55:07;4.50;99.90
29003;DHT22;16102;57.138;-2.118;2023-03-01T01:57:41;4.40;99.90
29003;DHT22;16102;57.138;-2.118;2023-03-01T02:00:13;4.40;99.90
29003;DHT22;16102;57.138;-2.118;2023-03-01T02:02:41;4.40;99.90
29003;DHT22;16102;57.138;-2.118;2023-03-01T02:07:58;4.40;99.90
29003;DHT22;16102;57.138;-2.118;2023-03-01T02:10:28;4.30;99.90
29003;DHT22;16102;57.138;-2.118;2023-03-01T02:12:55;4.30;99.90
29003;DHT22;16102;57.138;-2.118;2023-03-01T02:15:23;4.30;99.90
29003;DHT22;16102;57.138;-2.118;2023-03-01T02:17:51;4.30;99.90
29003;DHT22;16102;57.138;-2.118;2023-03-01T02:20:23;4.30;99.90
29003;DHT22;16102;57.138;-2.118;2023-03-01T02:22:54;4.30;99.90
29003;DHT22;16102;57.138;-2.118;2023-03-01T02:28:33;4.20;99.90
29003;DHT22;16102;57.138;-2.118;2023-03-01T02:31:01;4.20;99.90
29003;DHT22;16102;57.138;-2.118;2023-03-01T02:33:48;4.20;99.90
29003;DHT22;16102;57.138;-2.118;2023-03-01T02:36:21;4.20;99.90
29003;DHT22;16102;57.138;-2.118;2023-03-01T02:38:52;4.20;99.90
29003;DHT22;16102;57.138;-2.118;2023-03-01T02:41:20;4.20;99.90
29003;DHT22;16102;57.138;-2.118;2023-03-01T02:43:48;4.20;99.90
29003;DHT22;16102;57.138;-2.118;2023-03-01T02:46:23;4.20;99.90
29003;DHT22;16102;57.138;-2.118;2023-03-01T02:48:57;4.20;99.90
29003;DHT22;16102;57.138;-2.118;2023-03-01T02:54:45;4.30;99.90
29003;DHT22;16102;57.138;-2.118;2023-03-01T02:57:14;4.40;99.90
29003;DHT22;16102;57.138;-2.118;2023-03-01T02:59:41;4.40;99.90
29003;DHT22;16102;57.138;-2.118;2023-03-01T03:02:20;4.50;99.90
29003;DHT22;16102;57.138;-2.118;2023-03-01T03:05:09;4.50;99.90
29003;DHT22;16102;57.138;-2.118;2023-03-01T03:07:39;4.50;99.90
29003;DHT22;16102;57.138;-2.118;2023-03-01T03:10:09;4.50;99.90
29003;DHT22;16102;57.138;-2.118;2023-03-01T03:12:38;4.50;99.90
29003;DHT22;16102;57.138;-2.118;2023-03-01T03:15:07;4.50;99.90
29003;DHT22;16102;57.138;-2.118;2023-03-01T03:17:40;4.50;99.90
29003;DHT22;16102;57.138;-2.118;2023-03-01T03:20:09;4.50;99.90
29003;DHT22;16102;57.138;-2.118;2023-03-01T03:22:39;4.50;99.90
29003;DHT22;16102;57.138;-2.118;2023-03-01T03:25:07;4.50;99.90
29003;DHT22;16102;57.138;-2.118;2023-03-01T03:27:40;4.60;99.90
29003;DHT22;16102;57.138;-2.118;2023-03-01T03:30:08;4.60;99.90
29003;DHT22;16102;57.138;-2.118;2023-03-01T03:32:36;4.50;99.90
29003;DHT22;16102;57.138;-2.118;2023-03-01T03:35:08;4.50;99.90
29003;DHT22;16102;57.138;-2.118;2023-03-01T03:37:39;4.50;1.00
29003;DHT22;16102;57.138;-2.118;2023-03-01T03:40:25;4.50;1.00
29003;DHT22;16102;57.138;-2.118;2023-03-01T03:42:52;4.50;1.00
29003;DHT22;16102;57.138;-2.118;2023-03-01T03:45:19;4.40;1.00
29003;DHT22;16102;57.138;-2.118;2023-03-01T03:47:46;4.40;1.00
29003;DHT22;16102;57.138;-2.118;2023-03-01T03:50:14;4.40;1.00
29003;DHT22;16102;57.138;-2.118;2023-03-01T03:52:42;4.30;1.00
29003;DHT22;16102;57.138;-2.118;2023-03-01T03:55:10;4.30;1.00
29003;DHT22;16102;57.138;-2.118;2023-03-01T03:57:39;4.30;1.00
29003;DHT22;16102;57.138;-2.118;2023-03-01T04:00:11;4.40;1.00
29003;DHT22;16102;57.138;-2.118;2023-03-01T04:02:45;4.40;1.00
29003;DHT22;16102;57.138;-2.118;2023-03-01T04:05:15;4.40;1.00
29003;DHT22;16102;57.138;-2.118;2023-03-01T04:07:42;4.40;1.00
29003;DHT22;16102;57.138;-2.118;2023-03-01T04:10:12;4.40;1.00
29003;DHT22;16102;57.138;-2.118;2023-03-01T04:12:39;4.50;1.00
29003;DHT22;16102;57.138;-2.118;2023-03-01T04:15:07;4.50;1.00
29003;DHT22;16102;57.138;-2.118;2023-03-01T04:17:41;4.50;1.00
29003;DHT22;16102;57.138;-2.118;2023-03-01T04:20:10;4.40;1.00
29003;DHT22;16102;57.138;-2.118;2023-03-01T04:22:39;4.40;1.00
29003;DHT22;16102;57.138;-2.118;2023-03-01T04:25:07;4.50;1.00
29003;DHT22;16102;57.138;-2.118;2023-03-01T04:27:35;4.40;1.00
29003;DHT22;16102;57.138;-2.118;2023-03-01T04:30:05;4.50;1.00
29003;DHT22;16102;57.138;-2.118;2023-03-01T04:32:33;4.50;1.00
29003;DHT22;16102;57.138;-2.118;2023-03-01T04:35:00;4.50;1.00
29003;DHT22;16102;57.138;-2.118;2023-03-01T04:37:27;4.50;99.90
29003;DHT22;16102;57.138;-2.118;2023-03-01T04:39:54;4.50;99.90
29003;DHT22;16102;57.138;-2.118;2023-03-01T04:42:21;4.60;99.90
29003;DHT22;16102;57.138;-2.118;2023-03-01T04:44:48;4.60;99.90
29003;DHT22;16102;57.138;-2.118;2023-03-01T04:47:17;4.60;99.90
29003;DHT22;16102;57.138;-2.118;2023-03-01T04:49:44;4.60;99.90
29003;DHT22;16102;57.138;-2.118;2023-03-01T04:52:11;4.60;99.90
29003;DHT22;16102;57.138;-2.118;2023-03-01T04:54:38;4.60;99.90
29003;DHT22;16102;57.138;-2.118;2023-03-01T04:57:05;4.70;99.90
29003;DHT22;16102;57.138;-2.118;2023-03-01T04:59:32;4.70;99.90
29003;DHT22;16102;57.138;-2.118;2023-03-01T05:01:59;4.80;99.90
29003;DHT22;16102;57.138;-2.118;2023-03-01T05:04:27;4.80;99.90
29003;DHT22;16102;57.138;-2.118;2023-03-01T05:06:54;4.90;99.90
29003;DHT22;16102;57.138;-2.118;2023-03-01T05:09:20;4.90;99.90
29003;DHT22;16102;57.138;-2.118;2023-03-01T05:11:47;4.90;99.90
29003;DHT22;16102;57.138;-2.118;2023-03-01T05:14:14;4.90;99.90
29003;DHT22;16102;57.138;-2.118;2023-03-01T05:16:41;4.90;99.90
29003;DHT22;16102;57.138;-2.118;2023-03-01T05:19:08;4.90;99.90
29003;DHT22;16102;57.138;-2.118;2023-03-01T05:21:42;4.90;99.90
29003;DHT22;16102;57.138;-2.118;2023-03-01T05:24:30;4.90;99.90
29003;DHT22;16102;57.138;-2.118;2023-03-01T05:26:58;4.90;99.90
29003;DHT22;16102;57.138;-2.118;2023-03-01T05:29:27;4.90;99.90
29003;DHT22;16102;57.138;-2.118;2023-03-01T05:31:56;4.90;99.90
29003;DHT22;16102;57.138;-2.118;2023-03-01T05:34:26;4.90;99.90
29003;DHT22;16102;57.138;-2.118;2023-03-01T05:36:53;5.00;99.90
29003;DHT22;16102;57.138;-2.118;2023-03-01T05:39:22;4.90;99.90
29003;DHT22;16102;57.138;-2.118;2023-03-01T05:41:58;5.00;99.90
29003;DHT22;16102;57.138;-2.118;2023-03-01T05:44:26;5.00;99.90
29003;DHT22;16102;57.138;-2.118;2023-03-01T05:46:54;4.90;99.90
29003;DHT22;16102;57.138;-2.118;2023-03-01T05:49:21;4.90;99.90
29003;DHT22;16102;57.138;-2.118;2023-03-01T05:51:53;4.90;99.90
29003;DHT22;16102;57.138;-2.118;2023-03-01T05:54:21;4.90;1.00
29003;DHT22;16102;57.138;-2.118;2023-03-01T05:56:48;5.00;1.00
29003;DHT22;16102;57.138;-2.118;2023-03-01T05:59:15;4.90;1.00
29003;DHT22;16102;57.138;-2.118;2023-03-01T06:01:43;4.90;1.00
29003;DHT22;16102;57.138;-2.118;2023-03-01T06:04:10;5.00;1.00
29003;DHT22;16102;57.138;-2.118;2023-03-01T06:06:37;5.00;1.00
29003;DHT22;16102;57.138;-2.118;2023-03-01T06:09:05;5.10;1.00
29003;DHT22;16102;57.138;-2.118;2023-03-01T06:11:34;5.00;1.00
29003;DHT22;16102;57.138;-2.118;2023-03-01T06:14:01;5.10;1.00
29003;DHT22;16102;57.138;-2.118;2023-03-01T06:16:28;5.00;1.00
29003;DHT22;16102;57.138;-2.118;2023-03-01T06:18:55;5.10;1.00
29003;DHT22;16102;57.138;-2.118;2023-03-01T06:21:22;5.10;1.00
29003;DHT22;16102;57.138;-2.118;2023-03-01T06:23:49;5.10;1.00
29003;DHT22;16102;57.138;-2.118;2023-03-01T06:26:16;5.10;1.00
29003;DHT22;16102;57.138;-2.118;2023-03-01T06:28:43;5.10;1.00
29003;DHT22;16102;57.138;-2.118;2023-03-01T06:31:12;5.10;1.00
29003;DHT22;16102;57.138;-2.118;2023-03-01T06:33:40;5.20;1.00
29003;DHT22;16102;57.138;-2.118;2023-03-01T06:36:07;5.20;1.00
29003;DHT22;16102;57.138;-2.118;2023-03-01T06:38:34;5.30;1.00
29003;DHT22;16102;57.138;-2.118;2023-03-01T06:41:01;5.30;1.00
29003;DHT22;16102;57.138;-2.118;2023-03-01T06:43:28;5.30;99.90
29003;DHT22;16102;57.138;-2.118;2023-03-01T06:45:55;5.30;99.90
29003;DHT22;16102;57.138;-2.118;2023-03-01T06:48:22;5.30;99.90
29003;DHT22;16102;57.138;-2.118;2023-03-01T06:50:49;5.30;99.90
29003;DHT22;16102;57.138;-2.118;2023-03-01T06:53:16;5.30;99.90
29003;DHT22;16102;57.138;-2.118;2023-03-01T06:55:43;5.30;99.90
29003;DHT22;16102;57.138;-2.118;2023-03-01T06:58:10;5.40;99.90
29003;DHT22;16102;57.138;-2.118;2023-03-01T07:00:37;5.50;99.90
29003;DHT22;16102;57.138;-2.118;2023-03-01T07:03:07;5.40;99.90
29003;DHT22;16102;57.138;-2.118;2023-03-01T07:05:35;5.50;99.90
29003;DHT22;16102;57.138;-2.118;2023-03-01T07:08:02;5.40;99.90
29003;DHT22;16102;57.138;-2.118;2023-03-01T07:10:29;5.30;99.90
29003;DHT22;16102;57.138;-2.118;2023-03-01T07:12:57;5.30;99.90
29003;DHT22;16102;57.138;-2.118;2023-03-01T07:15:25;5.30;99.90
29003;DHT22;16102;57.138;-2.118;2023-03-01T07:17:52;5.20;1.00
29003;DHT22;16102;57.138;-2.118;2023-03-01T07:20:20;5.20;1.00
29003;DHT22;16102;57.138;-2.118;2023-03-01T07:22:53;5.20;99.90
29003;DHT22;16102;57.138;-2.118;2023-03-01T07:25:20;5.20;99.90
29003;DHT22;16102;57.138;-2.118;2023-03-01T07:27:51;5.30;99.90
29003;DHT22;16102;57.138;-2.118;2023-03-01T07:30:19;5.30;99.90
29003;DHT22;16102;57.138;-2.118;2023-03-01T07:32:46;5.30;99.90
29003;DHT22;16102;57.138;-2.118;2023-03-01T07:35:13;5.30;99.90
29003;DHT22;16102;57.138;-2.118;2023-03-01T07:37:41;5.30;99.90
29003;DHT22;16102;57.138;-2.118;2023-03-01T07:40:09;5.30;99.90
29003;DHT22;16102;57.138;-2.118;2023-03-01T07:42:36;5.30;99.90
29003;DHT22;16102;57.138;-2.118;2023-03-01T07:45:03;5.30;99.90
29003;DHT22;16102;57.138;-2.118;2023-03-01T07:47:31;5.30;99.90
29003;DHT22;16102;57.138;-2.118;2023-03-01T07:49:58;5.40;99.90
29003;DHT22;16102;57.138;-2.118;2023-03-01T07:52:25;5.50;1.00
29003;DHT22;16102;57.138;-2.118;2023-03-01T07:54:52;5.60;1.00
29003;DHT22;16102;57.138;-2.118;2023-03-01T07:57:19;5.60;1.00
29003;DHT22;16102;57.138;-2.118;2023-03-01T07:59:46;5.50;1.00
29003;DHT22;16102;57.138;-2.118;2023-03-01T08:02:13;5.60;1.00
29003;DHT22;16102;57.138;-2.118;2023-03-01T08:04:42;5.60;1.00
29003;DHT22;16102;57.138;-2.118;2023-03-01T08:07:09;5.60;1.00
29003;DHT22;16102;57.138;-2.118;2023-03-01T08:09:36;5.60;1.00
29003;DHT22;16102;57.138;-2.118;2023-03-01T08:12:04;5.60;1.00
29003;DHT22;16102;57.138;-2.118;2023-03-01T08:14:32;5.60;1.00
29003;DHT22;16102;57.138;-2.118;2023-03-01T08:16:59;5.60;1.00
29003;DHT22;16102;57.138;-2.118;2023-03-01T08:19:26;5.70;1.00
29003;DHT22;16102;57.138;-2.118;2023-03-01T08:21:54;5.60;1.00
29003;DHT22;16102;57.138;-2.118;2023-03-01T08:24:25;5.70;1.00
29003;DHT22;16102;57.138;-2.118;2023-03-01T08:26:52;5.70;1.00
29003;DHT22;16102;57.138;-2.118;2023-03-01T08:29:19;5.70;1.00
29003;DHT22;16102;57.138;-2.118;2023-03-01T08:31:46;5.70;53.50
29003;DHT22;16102;57.138;-2.118;2023-03-01T08:34:16;5.70;99.90
29003;DHT22;16102;57.138;-2.118;2023-03-01T08:36:45;5.70;99.90
29003;DHT22;16102;57.138;-2.118;2023-03-01T08:39:15;5.70;99.90
29003;DHT22;16102;57.138;-2.118;2023-03-01T08:41:42;5.70;99.90
29003;DHT22;16102;57.138;-2.118;2023-03-01T08:44:14;5.80;99.90
29003;DHT22;16102;57.138;-2.118;2023-03-01T08:46:44;5.80;1.00
29003;DHT22;16102;57.138;-2.118;2023-03-01T08:49:14;5.90;1.00
29003;DHT22;16102;57.138;-2.118;2023-03-01T08:51:42;5.90;1.00
29003;DHT22;16102;57.138;-2.118;2023-03-01T08:54:15;6.00;99.90
29003;DHT22;16102;57.138;-2.118;2023-03-01T08:56:42;6.00;99.90
29003;DHT22;16102;57.138;-2.118;2023-03-01T08:59:11;6.00;1.00
29003;DHT22;16102;57.138;-2.118;2023-03-01T09:01:38;6.20;1.00
29003;DHT22;16102;57.138;-2.118;2023-03-01T09:04:06;6.20;1.00
29003;DHT22;16102;57.138;-2.118;2023-03-01T09:06:34;6.40;99.90
29003;DHT22;16102;57.138;-2.118;2023-03-01T09:09:02;6.30;99.90
29003;DHT22;16102;57.138;-2.118;2023-03-01T09:11:30;6.40;99.90
29003;DHT22;16102;57.138;-2.118;2023-03-01T09:13:57;6.40;95.70
29003;DHT22;16102;57.138;-2.118;2023-03-01T09:16:24;6.30;1.00
29003;DHT22;16102;57.138;-2.118;2023-03-01T09:18:53;6.30;1.00
29003;DHT22;16102;57.138;-2.118;2023-03-01T09:21:22;6.30;99.90
29003;DHT22;16102;57.138;-2.118;2023-03-01T09:24:06;6.30;99.90
29003;DHT22;16102;57.138;-2.118;2023-03-01T09:26:33;6.30;99.90
29003;DHT22;16102;57.138;-2.118;2023-03-01T09:29:00;6.30;99.90
29003;DHT22;16102;57.138;-2.118;2023-03-01T09:31:27;6.30;99.90
29003;DHT22;16102;57.138;-2.118;2023-03-01T09:33:54;6.30;1.00
29003;DHT22;16102;57.138;-2.118;2023-03-01T09:36:23;6.30;1.00
29003;DHT22;16102;57.138;-2.118;2023-03-01T09:38:52;6.40;1.00
29003;DHT22;16102;57.138;-2.118;2023-03-01T09:44:44;6.40;99.90
29003;DHT22;16102;57.138;-2.118;2023-03-01T09:47:18;6.50;99.90
29003;DHT22;16102;57.138;-2.118;2023-03-01T09:49:56;6.50;99.90
29003;DHT22;16102;57.138;-2.118;2023-03-01T09:55:15;6.70;73.80
29003;DHT22;16102;57.138;-2.118;2023-03-01T09:57:50;6.70;1.00
29003;DHT22;16102;57.138;-2.118;2023-03-01T10:00:42;6.80;1.00
29003;DHT22;16102;57.138;-2.118;2023-03-01T10:08:40;7.00;1.00
29003;DHT22;16102;57.138;-2.118;2023-03-01T10:11:38;7.20;1.00
29003;DHT22;16102;57.138;-2.118;2023-03-01T10:19:40;7.50;99.90
29003;DHT22;16102;57.138;-2.118;2023-03-01T10:22:24;7.50;99.90
29003;DHT22;16102;57.138;-2.118;2023-03-01T10:24:58;7.40;99.90
29003;DHT22;16102;57.138;-2.118;2023-03-01T10:30:48;7.40;99.90
29003;DHT22;16102;57.138;-2.118;2023-03-01T10:32:52;7.30;99.90
29003;DHT22;16102;57.138;-2.118;2023-03-01T10:35:27;7.30;99.90
29003;DHT22;16102;57.138;-2.118;2023-03-01T10:38:06;7.40;99.90
29003;DHT22;16102;57.138;-2.118;2023-03-01T10:40:35;7.40;99.90
29003;DHT22;16102;57.138;-2.118;2023-03-01T10:43:04;7.50;99.90
29003;DHT22;16102;57.138;-2.118;2023-03-01T10:48:17;7.60;99.90
29003;DHT22;16102;57.138;-2.118;2023-03-01T10:50:50;7.60;99.90
29003;DHT22;16102;57.138;-2.118;2023-03-01T10:56:14;7.40;99.90
29003;DHT22;16102;57.138;-2.118;2023-03-01T10:58:58;7.40;99.90
29003;DHT22;16102;57.138;-2.118;2023-03-01T11:01:29;7.20;99.90
29003;DHT22;16102;57.138;-2.118;2023-03-01T11:06:34;7.20;99.90
29003;DHT22;16102;57.138;-2.118;2023-03-01T11:09:20;7.20;99.90
29003;DHT22;16102;57.138;-2.118;2023-03-01T11:11:54;7.10;99.90
29003;DHT22;16102;57.138;-2.118;2023-03-01T11:17:02;7.10;1.00
29003;DHT22;16102;57.138;-2.118;2023-03-01T11:19:30;7.00;99.90
29003;DHT22;16102;57.138;-2.118;2023-03-01T11:24:54;7.40;99.90
29003;DHT22;16102;57.138;-2.118;2023-03-01T11:27:39;7.80;99.90
29003;DHT22;16102;57.138;-2.118;2023-03-01T11:30:27;7.80;99.90
29003;DHT22;16102;57.138;-2.118;2023-03-01T11:35:37;8.10;99.90
29003;DHT22;16102;57.138;-2.118;2023-03-01T11:38:23;8.00;94.90
29003;DHT22;16102;57.138;-2.118;2023-03-01T11:44:18;8.00;36.00
29003;DHT22;16102;57.138;-2.118;2023-03-01T11:47:11;8.00;16.30
29003;DHT22;16102;57.138;-2.118;2023-03-01T12:01:00;8.20;1.00
29003;DHT22;16102;57.138;-2.118;2023-03-01T12:04:00;8.10;1.00
29003;DHT22;16102;57.138;-2.118;2023-03-01T12:11:46;7.90;60.70
29003;DHT22;16102;57.138;-2.118;2023-03-01T12:14:44;7.90;22.40
29003;DHT22;16102;57.138;-2.118;2023-03-01T12:17:36;7.80;8.10
29003;DHT22;16102;57.138;-2.118;2023-03-01T12:20:28;7.70;1.00
29003;DHT22;16102;57.138;-2.118;2023-03-01T12:25:53;7.70;1.00
29003;DHT22;16102;57.138;-2.118;2023-03-01T12:40:41;8.00;1.00
29003;DHT22;16102;57.138;-2.118;2023-03-01T12:49:14;8.30;1.00
29003;DHT22;16102;57.138;-2.118;2023-03-01T12:51:51;8.30;1.00
29003;DHT22;16102;57.138;-2.118;2023-03-01T12:54:30;8.40;1.00
29003;DHT22;16102;57.138;-2.118;2023-03-01T12:57:02;8.50;1.00
29003;DHT22;16102;57.138;-2.118;2023-03-01T12:59:40;8.60;1.00
29003;DHT22;16102;57.138;-2.118;2023-03-01T13:07:36;8.70;1.00
29003;DHT22;16102;57.138;-2.118;2023-03-01T13:18:02;8.80;1.00
29003;DHT22;16102;57.138;-2.118;2023-03-01T13:20:44;8.70;1.00
29003;DHT22;16102;57.138;-2.118;2023-03-01T13:28:48;8.80;1.00
29003;DHT22;16102;57.138;-2.118;2023-03-01T13:33:51;8.70;1.00
29003;DHT22;16102;57.138;-2.118;2023-03-01T13:46:57;8.80;1.00
29003;DHT22;16102;57.138;-2.118;2023-03-01T13:49:29;8.90;1.00
29003;DHT22;16102;57.138;-2.118;2023-03-01T13:54:47;8.90;1.00
29003;DHT22;16102;57.138;-2.118;2023-03-01T13:57:22;8.80;1.00
29003;DHT22;16102;57.138;-2.118;2023-03-01T13:59:51;8.80;1.00
29003;DHT22;16102;57.138;-2.118;2023-03-01T14:02:18;8.80;1.00
29003;DHT22;16102;57.138;-2.118;2023-03-01T14:04:56;8.70;1.00
29003;DHT22;16102;57.138;-2.118;2023-03-01T14:07:24;8.70;1.00
29003;DHT22;16102;57.138;-2.118;2023-03-01T14:09:54;8.70;1.00
29003;DHT22;16102;57.138;-2.118;2023-03-01T14:20:27;8.50;1.00
29003;DHT22;16102;57.138;-2.118;2023-03-01T14:22:56;8.40;1.00
29003;DHT22;16102;57.138;-2.118;2023-03-01T14:30:36;8.30;1.00
29003;DHT22;16102;57.138;-2.118;2023-03-01T14:33:16;8.40;1.00
29003;DHT22;16102;57.138;-2.118;2023-03-01T14:36:10;8.30;1.00
29003;DHT22;16102;57.138;-2.118;2023-03-01T14:38:46;8.40;1.00
29003;DHT22;16102;57.138;-2.118;2023-03-01T14:41:21;8.30;1.00
29003;DHT22;16102;57.138;-2.118;2023-03-01T14:43:55;8.40;1.00
29003;DHT22;16102;57.138;-2.118;2023-03-01T14:46:32;8.40;1.00
29003;DHT22;16102;57.138;-2.118;2023-03-01T14:49:19;8.40;1.00
29003;DHT22;16102;57.138;-2.118;2023-03-01T14:52:05;8.40;1.00
29003;DHT22;16102;57.138;-2.118;2023-03-01T14:54:54;8.40;1.00
29003;DHT22;16102;57.138;-2.118;2023-03-01T14:57:23;8.50;1.00
29003;DHT22;16102;57.138;-2.118;2023-03-01T14:59:55;8.40;1.00
29003;DHT22;16102;57.138;-2.118;2023-03-01T15:02:28;8.50;1.00
29003;DHT22;16102;57.138;-2.118;2023-03-01T15:04:59;8.40;1.00
29003;DHT22;16102;57.138;-2.118;2023-03-01T15:07:38;8.50;1.00
29003;DHT22;16102;57.138;-2.118;2023-03-01T15:10:14;8.50;1.00
29003;DHT22;16102;57.138;-2.118;2023-03-01T15:12:43;8.50;1.00
29003;DHT22;16102;57.138;-2.118;2023-03-01T15:15:32;8.50;1.00
29003;DHT22;16102;57.138;-2.118;2023-03-01T15:18:22;8.60;1.00
29003;DHT22;16102;57.138;-2.118;2023-03-01T15:20:49;8.60;1.00
29003;DHT22;16102;57.138;-2.118;2023-03-01T15:25:51;8.60;1.00
29003;DHT22;16102;57.138;-2.118;2023-03-01T15:28:48;8.70;1.00
29003;DHT22;16102;57.138;-2.118;2023-03-01T15:31:24;8.60;1.00
29003;DHT22;16102;57.138;-2.118;2023-03-01T15:33:52;8.70;1.00
29003;DHT22;16102;57.138;-2.118;2023-03-01T15:36:44;8.80;1.00
29003;DHT22;16102;57.138;-2.118;2023-03-01T15:39:56;8.90;1.00
29003;DHT22;16102;57.138;-2.118;2023-03-01T15:45:11;8.80;1.00
29003;DHT22;16102;57.138;-2.118;2023-03-01T15:47:40;8.70;1.00
29003;DHT22;16102;57.138;-2.118;2023-03-01T15:50:20;8.60;1.00
29003;DHT22;16102;57.138;-2.118;2023-03-01T15:52:48;8.60;1.00
29003;DHT22;16102;57.138;-2.118;2023-03-01T15:55:35;8.60;1.00
29003;DHT22;16102;57.138;-2.118;2023-03-01T15:58:17;8.60;1.00
29003;DHT22;16102;57.138;-2.118;2023-03-01T16:00:46;8.70;1.00
29003;DHT22;16102;57.138;-2.118;2023-03-01T16:03:27;8.70;1.00
29003;DHT22;16102;57.138;-2.118;2023-03-01T16:05:54;8.80;1.00
29003;DHT22;16102;57.138;-2.118;2023-03-01T16:08:21;8.70;1.00
29003;DHT22;16102;57.138;-2.118;2023-03-01T16:10:49;8.80;1.00
29003;DHT22;16102;57.138;-2.118;2023-03-01T16:13:17;8.70;1.00
29003;DHT22;16102;57.138;-2.118;2023-03-01T16:15:44;8.60;1.00
29003;DHT22;16102;57.138;-2.118;2023-03-01T16:18:11;8.50;1.00
29003;DHT22;16102;57.138;-2.118;2023-03-01T16:20:39;8.40;1.00
29003;DHT22;16102;57.138;-2.118;2023-03-01T16:23:07;8.30;1.00
29003;DHT22;16102;57.138;-2.118;2023-03-01T16:25:35;8.40;1.00
29003;DHT22;16102;57.138;-2.118;2023-03-01T16:28:03;8.50;1.00
29003;DHT22;16102;57.138;-2.118;2023-03-01T16:30:45;8.40;1.00
29003;DHT22;16102;57.138;-2.118;2023-03-01T16:33:12;8.40;1.00
29003;DHT22;16102;57.138;-2.118;2023-03-01T16:36:09;8.40;1.00
29003;DHT22;16102;57.138;-2.118;2023-03-01T16:38:37;8.40;1.00
29003;DHT22;16102;57.138;-2.118;2023-03-01T16:41:05;8.20;1.00
29003;DHT22;16102;57.138;-2.118;2023-03-01T16:43:37;8.10;1.00
29003;DHT22;16102;57.138;-2.118;2023-03-01T16:46:11;7.90;1.00
29003;DHT22;16102;57.138;-2.118;2023-03-01T16:48:39;7.90;1.00
29003;DHT22;16102;57.138;-2.118;2023-03-01T16:51:07;7.90;1.00
29003;DHT22;16102;57.138;-2.118;2023-03-01T16:53:35;7.90;1.00
29003;DHT22;16102;57.138;-2.118;2023-03-01T16:56:04;7.90;1.00
29003;DHT22;16102;57.138;-2.118;2023-03-01T16:58:32;8.00;17.30
29003;DHT22;16102;57.138;-2.118;2023-03-01T17:01:07;8.10;31.10
29003;DHT22;16102;57.138;-2.118;2023-03-01T17:03:35;8.00;23.50
29003;DHT22;16102;57.138;-2.118;2023-03-01T17:06:04;8.00;9.90
29003;DHT22;16102;57.138;-2.118;2023-03-01T17:08:32;7.90;1.00
29003;DHT22;16102;57.138;-2.118;2023-03-01T17:11:14;7.90;1.00
29003;DHT22;16102;57.138;-2.118;2023-03-01T17:13:42;7.90;1.00
29003;DHT22;16102;57.138;-2.118;2023-03-01T17:16:12;7.90;1.00
29003;DHT22;16102;57.138;-2.118;2023-03-01T17:18:40;7.90;1.00
29003;DHT22;16102;57.138;-2.118;2023-03-01T17:21:08;7.90;1.00
29003;DHT22;16102;57.138;-2.118;2023-03-01T17:23:37;7.90;1.00
29003;DHT22;16102;57.138;-2.118;2023-03-01T17:26:05;7.90;1.70
29003;DHT22;16102;57.138;-2.118;2023-03-01T17:28:36;7.90;2.40
29003;DHT22;16102;57.138;-2.118;2023-03-01T17:31:05;7.90;6.10
29003;DHT22;16102;57.138;-2.118;2023-03-01T17:33:32;7.90;2.20
29003;DHT22;16102;57.138;-2.118;2023-03-01T17:35:59;7.90;5.80
29003;DHT22;16102;57.138;-2.118;2023-03-01T17:38:27;7.80;6.40
29003;DHT22;16102;57.138;-2.118;2023-03-01T17:40:54;7.80;5.40
29003;DHT22;16102;57.138;-2.118;2023-03-01T17:43:21;7.80;8.30
29003;DHT22;16102;57.138;-2.118;2023-03-01T17:45:48;7.80;13.90
29003;DHT22;16102;57.138;-2.118;2023-03-01T17:48:17;7.80;19.00
29003;DHT22;16102;57.138;-2.118;2023-03-01T17:50:44;7.80;22.20
29003;DHT22;16102;57.138;-2.118;2023-03-01T17:53:11;7.80;26.10
29003;DHT22;16102;57.138;-2.118;2023-03-01T17:55:41;7.80;34.70
29003;DHT22;16102;57.138;-2.118;2023-03-01T17:58:11;7.80;44.00
29003;DHT22;16102;57.138;-2.118;2023-03-01T18:00:38;7.80;59.20
29003;DHT22;16102;57.138;-2.118;2023-03-01T18:03:05;7.80;71.10
29003;DHT22;16102;57.138;-2.118;2023-03-01T18:05:34;7.70;88.30
29003;DHT22;16102;57.138;-2.118;2023-03-01T18:08:01;7.70;94.80
29003;DHT22;16102;57.138;-2.118;2023-03-01T18:10:29;7.70;99.90
29003;DHT22;16102;57.138;-2.118;2023-03-01T18:12:56;7.70;99.90
29003;DHT22;16102;57.138;-2.118;2023-03-01T18:15:23;7.70;99.90
29003;DHT22;16102;57.138;-2.118;2023-03-01T18:17:50;7.70;99.90
29003;DHT22;16102;57.138;-2.118;2023-03-01T18:20:17;7.70;99.90
29003;DHT22;16102;57.138;-2.118;2023-03-01T18:22:45;7.70;99.90
29003;DHT22;16102;57.138;-2.118;2023-03-01T18:25:12;7.70;99.90